Time;durP1;ratioP1;P1;durP2;ratioP2;P2;SDS_P1;SDS_P2;PMS_P1;PMS_P2;Temp;Humidity;BMP_temperature;BMP_pressure;BME280_temperature;BME280_humidity;BME280_pressure;Samples;Min_cycle;Max_cycle;Signal;HPM_P1;HPM_P2
2022/11/17 00:01:13;;;;;;;3.83;1.15;;;;;;;10.09;100.00;98554.28;5205466;28;20541;-75
2022/11/17 00:03:45;;;;;;;4.07;1.13;;;;;;;10.09;100.00;98559.63;5205478;28;20104;-74
2022/11/17 00:06:19;;;;;;;3.38;1.15;;;;;;;10.08;100.00;98574.91;5204938;28;20561;-74
2022/11/17 00:08:51;;;;;;;4.97;1.15;;;;;;;10.08;100.00;98569.53;5204706;28;20021;-74
2022/11/17 00:11:22;;;;;;;4.40;1.10;;;;;;;10.09;100.00;98571.19;5205502;28;20029;-74
2022/11/17 00:16:41;;;;;;;1.70;0.68;;;;;;;10.11;100.00;98554.91;5204622;28;20021;-74
2022/11/17 00:22:00;;;;;;;3.65;1.10;;;;;;;10.17;100.00;98542.50;5204992;28;20538;-74
2022/11/17 00:24:30;;;;;;;1.40;0.52;;;;;;;10.20;100.00;98524.13;5204161;28;20064;-73
2022/11/17 00:27:01;;;;;;;2.15;0.60;;;;;;;10.25;100.00;98516.28;5201105;28;20014;-74
2022/11/17 00:29:32;;;;;;;0.68;0.60;;;;;;;10.28;100.00;98525.72;5204953;28;20024;-74
2022/11/17 00:34:51;;;;;;;2.60;0.52;;;;;;;10.36;100.00;98512.03;5204742;28;20049;-73
2022/11/17 00:37:22;;;;;;;3.70;0.55;;;;;;;10.35;100.00;98511.22;5204438;28;20053;-73
2022/11/17 00:39:53;;;;;;;1.90;0.70;;;;;;;10.32;100.00;98503.63;5204814;28;20021;-74
2022/11/17 00:42:23;;;;;;;0.60;0.52;;;;;;;10.29;100.00;98497.88;5204855;28;20021;-74
2022/11/17 00:44:54;;;;;;;2.50;0.52;;;;;;;10.25;100.00;98494.00;5204383;28;20107;-73
2022/11/17 00:47:24;;;;;;;2.88;0.63;;;;;;;10.24;100.00;98495.03;5204216;28;20031;-73
2022/11/17 00:49:55;;;;;;;3.78;0.60;;;;;;;10.26;100.00;98495.66;5204089;28;20025;-73
2022/11/17 00:52:25;;;;;;;1.83;0.57;;;;;;;10.19;100.00;98492.16;5204452;28;20108;-73
2022/11/17 00:54:56;;;;;;;4.18;0.60;;;;;;;10.08;100.00;98489.16;5204407;28;20025;-72
2022/11/17 00:57:26;;;;;;;2.67;0.70;;;;;;;10.13;100.00;98494.69;5203152;28;20079;-73
2022/11/17 00:59:56;;;;;;;1.15;0.45;;;;;;;10.11;100.00;98488.75;5204447;28;20032;-73
2022/11/17 01:02:27;;;;;;;4.05;0.80;;;;;;;10.16;100.00;98487.25;5203826;28;20426;-73
2022/11/17 01:04:57;;;;;;;4.50;0.93;;;;;;;10.15;100.00;98485.63;5204336;28;20098;-73
2022/11/17 01:07:28;;;;;;;4.85;1.00;;;;;;;10.15;100.00;98483.78;5203610;28;20100;-73
2022/11/17 01:09:58;;;;;;;3.33;0.60;;;;;;;10.11;100.00;98480.72;5204424;28;20049;-73
2022/11/17 01:12:29;;;;;;;4.22;0.90;;;;;;;10.09;100.00;98480.13;5203971;28;20078;-73
2022/11/17 01:14:59;;;;;;;1.95;0.52;;;;;;;10.09;100.00;98469.41;5203861;28;20036;-73
2022/11/17 01:17:30;;;;;;;7.35;0.82;;;;;;;10.08;100.00;98472.28;5202290;28;20025;-73
2022/11/17 01:20:00;;;;;;;2.97;0.70;;;;;;;10.09;100.00;98476.59;5203942;28;20079;-73
2022/11/17 01:22:30;;;;;;;7.25;0.82;;;;;;;10.06;100.00;98479.72;5224440;28;20033;-74
2022/11/17 01:25:01;;;;;;;5.32;0.80;;;;;;;10.01;100.00;98475.03;5196283;28;20495;-74
2022/11/17 01:27:32;;;;;;;3.13;0.85;;;;;;;9.98;100.00;98467.41;5194249;28;20360;-74
2022/11/17 01:30:03;;;;;;;4.57;0.70;;;;;;;10.03;100.00;98461.41;5199943;28;20083;-74
2022/11/17 01:32:33;;;;;;;4.03;0.90;;;;;;;10.11;100.00;98451.25;5200611;28;20021;-74
2022/11/17 01:35:04;;;;;;;6.88;0.82;;;;;;;10.11;100.00;98448.56;5204043;28;20028;-74
2022/11/17 01:37:35;;;;;;;6.22;1.02;;;;;;;10.11;100.00;98445.06;5203430;28;20072;-73
2022/11/17 01:40:06;;;;;;;3.75;1.02;;;;;;;10.16;100.00;98439.84;5203664;28;20087;-74
2022/11/17 01:42:36;;;;;;;6.15;1.10;;;;;;;10.08;100.00;98432.09;5203786;28;20028;-73
2022/11/17 01:45:23;;;;;;;11.13;1.45;;;;;;;10.02;100.00;98420.41;5203689;28;20021;-74
2022/11/17 01:47:58;;;;;;;6.63;1.08;;;;;;;10.02;100.00;98424.94;5203702;28;20071;-74
2022/11/17 01:50:28;;;;;;;4.80;0.88;;;;;;;10.02;100.00;98420.41;5204444;28;20120;-74
2022/11/17 01:53:01;;;;;;;5.13;1.00;;;;;;;10.03;100.00;98419.38;5204198;28;20108;-75
2022/11/17 01:55:42;;;;;;;4.88;1.02;;;;;;;10.04;100.00;98414.81;5203475;28;20041;-74
2022/11/17 01:58:18;;;;;;;5.32;1.27;;;;;;;10.10;100.00;98411.28;5191568;28;20471;-75
2022/11/17 02:00:48;;;;;;;11.10;1.17;;;;;;;10.10;100.00;98403.25;5204124;28;20037;-74
2022/11/17 02:03:19;;;;;;;3.45;0.85;;;;;;;10.01;100.00;98400.03;5204209;28;20025;-74
2022/11/17 02:06:05;;;;;;;5.53;1.25;;;;;;;10.04;100.00;98390.72;5204047;28;20037;-74
2022/11/17 02:08:38;;;;;;;4.60;2.13;;;;;;;10.01;100.00;98393.84;5205870;28;20030;-74
2022/11/17 02:11:13;;;;;;;3.35;0.88;;;;;;;10.04;100.00;98399.59;5194933;28;20493;-74
2022/11/17 02:13:44;;;;;;;8.23;1.80;;;;;;;10.02;100.00;98398.16;5208348;28;20021;-74
2022/11/17 02:16:22;;;;;;;12.30;1.67;;;;;;;9.98;100.00;98389.75;5208335;28;20104;-74
2022/11/17 02:18:53;;;;;;;10.82;1.45;;;;;;;10.03;100.00;98384.53;5207128;28;20163;-74
2022/11/17 02:21:52;;;;;;;7.78;0.93;;;;;;;10.06;100.00;98392.16;5207793;28;20029;-74
2022/11/17 02:25:03;;;;;;;7.28;1.17;;;;;;;10.09;100.00;98390.88;5204120;28;20029;-74
2022/11/17 02:27:42;;;;;;;7.75;1.63;;;;;;;10.22;100.00;98396.09;5186798;28;20022;-74
2022/11/17 02:30:22;;;;;;;8.00;1.35;;;;;;;10.32;100.00;98390.25;5206003;28;20040;-74
2022/11/17 02:33:11;;;;;;;10.23;1.55;;;;;;;10.36;100.00;98378.03;5202897;28;20479;-74
2022/11/17 02:35:50;;;;;;;9.73;1.35;;;;;;;10.41;100.00;98374.69;5206397;28;20083;-74
2022/11/17 02:38:42;;;;;;;5.82;1.20;;;;;;;10.47;100.00;98358.50;5207032;28;20035;-74
2022/11/17 02:41:17;;;;;;;7.90;1.40;;;;;;;10.51;100.00;98358.88;5207654;28;20072;-74
2022/11/17 02:44:12;;;;;;;10.00;1.55;;;;;;;10.48;100.00;98352.09;5207579;28;20052;-74
2022/11/17 02:46:48;;;;;;;3.00;1.02;;;;;;;10.45;100.00;98349.88;5207101;28;20021;-74
2022/11/17 02:49:38;;;;;;;4.20;1.10;;;;;;;10.43;100.00;98343.91;5206962;28;20029;-74
2022/11/17 02:52:09;;;;;;;11.07;1.35;;;;;;;10.38;100.00;98343.78;5207437;28;20021;-73
2022/11/17 02:54:40;;;;;;;6.63;1.35;;;;;;;10.43;100.00;98340.41;5207176;28;20060;-73
2022/11/17 02:57:46;;;;;;;6.75;1.35;;;;;;;10.51;100.00;98338.25;5206349;28;20029;-74
2022/11/17 03:00:19;;;;;;;5.55;1.10;;;;;;;10.60;100.00;98323.50;5155013;28;20531;-73
2022/11/17 03:03:21;;;;;;;7.43;1.42;;;;;;;10.65;100.00;98322.00;5200539;28;20033;-74
2022/11/17 03:06:26;;;;;;;3.80;0.82;;;;;;;10.66;100.00;98312.91;5206753;28;20036;-73
2022/11/17 03:08:57;;;;;;;15.38;1.65;;;;;;;10.63;100.00;98306.94;5206440;28;20124;-73
2022/11/17 03:11:38;;;;;;;5.32;1.88;;;;;;;10.61;100.00;98316.25;5207119;28;20108;-73
2022/11/17 03:14:27;;;;;;;8.82;1.30;;;;;;;10.55;100.00;98315.31;5206771;28;20021;-74
2022/11/17 03:17:13;;;;;;;10.63;1.30;;;;;;;10.50;100.00;98317.84;5206416;28;20017;-74
2022/11/17 03:19:49;;;;;;;7.68;1.40;;;;;;;10.49;100.00;98313.56;5206267;28;20083;-73
2022/11/17 03:22:32;;;;;;;7.32;1.65;;;;;;;10.49;100.00;98308.19;5205229;28;20032;-74
2022/11/17 03:25:05;;;;;;;10.88;1.20;;;;;;;10.45;100.00;98303.50;5203160;28;20091;-74
2022/11/17 03:27:39;;;;;;;8.90;1.98;;;;;;;10.41;100.00;98297.78;5196524;28;20530;-74
2022/11/17 03:30:11;;;;;;;9.82;1.50;;;;;;;10.42;100.00;98295.91;5203317;28;20032;-75
2022/11/17 03:32:48;;;;;;;8.57;1.50;;;;;;;10.39;100.00;98291.81;5202610;28;20033;-74
2022/11/17 03:35:24;;;;;;;10.60;1.65;;;;;;;10.38;100.00;98285.63;5206399;28;20045;-75
2022/11/17 03:38:00;;;;;;;14.63;2.15;;;;;;;10.40;100.00;98289.97;5205812;28;20045;-75
2022/11/17 03:40:34;;;;;;;13.15;1.55;;;;;;;10.42;100.00;98290.53;5206404;28;20171;-75
2022/11/17 03:43:08;;;;;;;12.75;1.58;;;;;;;10.47;100.00;98288.81;5206396;28;20036;-74
2022/11/17 03:45:43;;;;;;;21.05;1.85;;;;;;;10.46;100.00;98278.31;5206169;28;20025;-74
2022/11/17 03:48:29;;;;;;;;;;;;;;;10.46;100.00;98272.97;5206056;28;20026;-74
2022/11/17 03:51:17;;;;;;;10.43;1.73;;;;;;;10.45;100.00;98276.69;5206004;28;19916;-74
2022/11/17 03:53:49;;;;;;;5.47;2.08;;;;;;;10.46;100.00;98275.66;5206077;28;20048;-74
2022/11/17 03:57:01;;;;;;;21.92;2.42;;;;;;;10.44;100.00;98269.69;5204905;28;20096;-74
2022/11/17 03:59:42;;;;;;;15.50;1.85;;;;;;;10.44;100.00;98281.25;5204150;28;20049;-74
2022/11/17 04:02:17;;;;;;;15.93;2.30;;;;;;;10.49;100.00;98301.97;5205973;28;20108;-74
2022/11/17 04:05:05;;;;;;;9.07;1.77;;;;;;;10.52;100.00;98301.53;5206244;28;20025;-73
2022/11/17 04:07:43;;;;;;;15.10;2.15;;;;;;;10.50;100.00;98293.72;5205148;28;20558;-73
2022/11/17 04:10:15;;;;;;;17.48;2.28;;;;;;;10.49;100.00;98302.81;5205367;28;20030;-73
2022/11/17 04:18:25;;;;;;;9.75;1.85;;;;;;;10.48;100.00;98313.75;5204502;28;20025;-74
2022/11/17 04:20:56;;;;;;;8.98;1.83;;;;;;;10.48;100.00;98314.56;5205777;28;20107;-74
2022/11/17 04:23:27;;;;;;;11.00;1.60;;;;;;;10.51;100.00;98316.81;5205233;28;20018;-74
2022/11/17 04:28:48;;;;;;;11.40;1.70;;;;;;;10.45;100.00;98316.91;5191062;28;20017;-74
2022/11/17 04:31:24;;;;;;;8.75;1.70;;;;;;;10.43;100.00;98324.34;5204225;28;20048;-75
2022/11/17 04:33:58;;;;;;;16.25;1.85;;;;;;;10.38;100.00;98311.63;5205204;28;20052;-75
2022/11/17 04:36:39;;;;;;;12.73;1.75;;;;;;;10.37;100.00;98313.47;5205117;28;20221;-74
2022/11/17 04:39:11;;;;;;;10.18;1.38;;;;;;;10.37;100.00;98308.13;5204348;28;20101;-73
2022/11/17 04:42:02;;;;;;;14.32;1.90;;;;;;;10.39;100.00;98313.25;5205085;28;20028;-74
2022/11/17 04:44:32;;;;;;;9.93;1.30;;;;;;;10.41;100.00;98308.50;5204960;28;20053;-74
2022/11/17 04:47:03;;;;;;;10.68;1.33;;;;;;;10.40;100.00;98303.38;5204634;28;20155;-74
2022/11/17 04:49:33;;;;;;;6.72;1.30;;;;;;;10.44;100.00;98308.06;5203029;28;20040;-74
2022/11/17 04:52:04;;;;;;;12.38;2.13;;;;;;;10.45;100.00;98312.34;5205088;28;20542;-74
2022/11/17 04:54:34;;;;;;;11.20;1.55;;;;;;;10.41;100.00;98308.50;5204816;28;20026;-75
2022/11/17 04:57:05;;;;;;;10.13;1.83;;;;;;;10.46;100.00;98326.56;5204670;28;20023;-74
2022/11/17 04:59:35;;;;;;;5.63;1.30;;;;;;;10.45;100.00;98311.53;5204535;28;20025;-74
2022/11/17 05:02:06;;;;;;;9.63;1.60;;;;;;;10.45;100.00;98322.25;5204137;28;20563;-74
2022/11/17 05:07:26;;;;;;;7.28;1.15;;;;;;;10.43;100.00;98317.13;5204478;28;20475;-74
2022/11/17 05:09:57;;;;;;;14.23;1.42;;;;;;;10.47;100.00;98329.03;5204509;28;20026;-73
2022/11/17 05:17:03;;;;;;;5.60;1.35;;;;;;;10.41;100.00;98339.84;5204454;28;20383;-74
2022/11/17 05:18:07;;;;;;;8.90;1.20;;;;;;;10.36;100.00;98346.69;5203847;28;20569;-74
2022/11/17 05:20:37;;;;;;;8.80;1.55;;;;;;;10.34;100.00;98346.09;5204232;28;20056;-74
2022/11/17 05:25:56;;;;;;;11.07;1.17;;;;;;;10.18;100.00;98360.06;5192682;28;20474;-75
2022/11/17 05:28:30;;;;;;;5.55;0.85;;;;;;;10.08;100.00;98355.22;5203677;28;20039;-75
2022/11/17 05:31:00;;;;;;;6.00;0.90;;;;;;;9.99;100.00;98361.09;5200738;28;20079;-74
2022/11/17 05:33:31;;;;;;;5.97;0.60;;;;;;;9.92;100.00;98360.38;5203814;28;20029;-74
2022/11/17 05:36:01;;;;;;;5.30;0.98;;;;;;;9.85;100.00;98357.78;5204152;28;20009;-75
2022/11/17 05:38:32;;;;;;;3.60;0.80;;;;;;;9.77;100.00;98353.50;5203581;28;20070;-75
2022/11/17 05:41:03;;;;;;;6.40;0.85;;;;;;;9.76;100.00;98364.44;5204104;28;20538;-75
2022/11/17 05:43:33;;;;;;;8.50;0.68;;;;;;;9.74;100.00;98369.19;5203673;28;20029;-75
2022/11/17 05:46:04;;;;;;;5.43;0.93;;;;;;;9.70;100.00;98381.41;5203581;28;20505;-75
2022/11/17 05:48:35;;;;;;;2.03;0.60;;;;;;;9.65;100.00;98378.56;5203555;28;20083;-75
2022/11/17 05:51:05;;;;;;;5.15;0.70;;;;;;;9.65;100.00;98378.56;5203779;28;20029;-75
2022/11/17 05:53:36;;;;;;;3.38;0.43;;;;;;;9.60;100.00;98384.56;5204041;28;20056;-75
2022/11/17 05:56:19;;;;;;;3.35;0.80;;;;;;;9.58;100.00;98392.00;5203500;28;20017;-74
2022/11/17 05:58:53;;;;;;;6.72;1.05;;;;;;;9.59;100.00;98388.31;5203517;28;20040;-76
2022/11/17 06:01:25;;;;;;;4.85;0.60;;;;;;;9.56;100.00;98386.88;5203874;28;20028;-73
2022/11/17 06:04:01;;;;;;;2.70;0.77;;;;;;;9.53;100.00;98395.31;5202389;28;20060;-73
2022/11/17 06:06:33;;;;;;;;;;;;;;;9.50;100.00;98403.00;5204040;28;20026;-72
2022/11/17 06:09:04;;;;;;;5.63;0.77;;;;;;;9.53;100.00;98402.53;5203107;28;20255;-72
2022/11/17 06:11:34;;;;;;;4.85;1.00;;;;;;;9.50;100.00;98414.50;5204511;28;20030;-72
2022/11/17 06:14:05;;;;;;;2.55;0.70;;;;;;;9.58;100.00;98413.41;5202783;28;20029;-72
2022/11/17 06:16:43;;;;;;;2.55;0.60;;;;;;;9.56;100.00;98416.31;5204428;28;20021;-72
2022/11/17 06:19:19;;;;;;;4.50;1.20;;;;;;;9.57;100.00;98407.22;5203954;28;20029;-72
2022/11/17 06:21:50;;;;;;;3.15;0.70;;;;;;;9.54;100.00;98415.72;5204323;28;20117;-72
2022/11/17 06:24:21;;;;;;;6.90;1.98;;;;;;;9.51;100.00;98432.19;5204045;28;20104;-72
2022/11/17 06:26:52;;;;;;;4.97;0.70;;;;;;;9.50;100.00;98425.22;5195829;28;20021;-72
2022/11/17 06:29:23;;;;;;;3.65;0.60;;;;;;;9.51;100.00;98434.88;5194118;28;20063;-73
2022/11/17 06:31:56;;;;;;;5.78;0.70;;;;;;;9.53;100.00;98434.66;5199831;28;20467;-73
2022/11/17 06:34:27;;;;;;;1.75;0.50;;;;;;;9.49;100.00;98444.19;5203538;28;20490;-73
2022/11/17 06:36:58;;;;;;;4.15;0.70;;;;;;;9.48;100.00;98453.22;5203270;28;20483;-73
2022/11/17 06:39:28;;;;;;;4.10;0.75;;;;;;;9.47;100.00;98447.06;5203132;28;20040;-74
2022/11/17 06:41:59;;;;;;;2.25;0.90;;;;;;;9.43;100.00;98442.34;5203303;28;20475;-73
2022/11/17 06:44:29;;;;;;;5.43;0.88;;;;;;;9.42;100.00;98446.88;5203321;28;20032;-73
2022/11/17 06:47:00;;;;;;;2.78;0.68;;;;;;;9.44;100.00;98444.84;5202197;28;20028;-73
2022/11/17 06:49:30;;;;;;;3.92;1.48;;;;;;;9.42;100.00;98448.75;5201084;28;20095;-73
2022/11/17 06:52:01;;;;;;;2.90;0.90;;;;;;;9.42;100.00;98452.25;5203485;28;20091;-73
2022/11/17 06:54:31;;;;;;;4.13;0.88;;;;;;;9.42;100.00;98448.75;5203263;28;20112;-73
2022/11/17 06:57:02;;;;;;;3.63;0.85;;;;;;;9.43;100.00;98451.19;5206719;28;20018;-73
2022/11/17 06:59:32;;;;;;;2.08;0.57;;;;;;;9.41;100.00;98455.13;5206893;28;20080;-73
2022/11/17 07:02:03;;;;;;;5.13;0.90;;;;;;;9.45;100.00;98457.16;5206496;28;20022;-73
2022/11/17 07:04:33;;;;;;;6.35;1.33;;;;;;;9.48;100.00;98453.22;5205171;28;20431;-73
2022/11/17 07:07:04;;;;;;;4.05;1.20;;;;;;;9.50;100.00;98464.56;5203365;28;20029;-73
2022/11/17 07:09:34;;;;;;;2.72;0.57;;;;;;;9.51;100.00;98452.81;5205887;28;20029;-73
2022/11/17 07:12:05;;;;;;;5.28;1.00;;;;;;;9.57;100.00;98467.97;5207066;28;20113;-73
2022/11/17 07:14:35;;;;;;;3.70;0.38;;;;;;;9.51;100.00;98467.00;5206685;28;20052;-73
2022/11/17 07:17:06;;;;;;;3.95;0.88;;;;;;;9.54;100.00;98474.59;5206394;28;20305;-73
2022/11/17 07:19:37;;;;;;;4.55;0.70;;;;;;;9.51;100.00;98483.06;5206174;28;20021;-73
2022/11/17 07:22:07;;;;;;;3.70;0.80;;;;;;;9.56;100.00;98480.56;5206647;28;20021;-73
2022/11/17 07:24:37;;;;;;;8.40;0.88;;;;;;;9.55;100.00;98488.81;5204702;28;20029;-73
2022/11/17 07:27:08;;;;;;;2.75;0.70;;;;;;;9.49;100.00;98485.13;5198473;28;20033;-73
2022/11/17 07:29:39;;;;;;;4.57;0.77;;;;;;;9.44;100.00;98493.00;5199037;28;20080;-73
2022/11/17 07:32:12;;;;;;;6.38;0.77;;;;;;;9.45;100.00;98497.31;5205874;28;20017;-73
2022/11/17 07:34:43;;;;;;;3.08;0.60;;;;;;;9.43;100.00;98488.66;5206525;28;20029;-73
2022/11/17 07:37:13;;;;;;;3.92;0.63;;;;;;;9.46;100.00;98493.59;5206016;28;20028;-73
2022/11/17 07:39:44;;;;;;;4.07;0.80;;;;;;;9.47;100.00;98492.56;5205995;28;20025;-74
2022/11/17 07:42:14;;;;;;;6.18;0.55;;;;;;;9.58;100.00;98504.41;5206409;28;20023;-73
2022/11/17 07:44:44;;;;;;;4.18;0.70;;;;;;;9.62;100.00;98512.84;5205554;28;20119;-73
2022/11/17 07:47:15;;;;;;;2.97;0.50;;;;;;;9.64;100.00;98518.78;5205823;28;20028;-73
2022/11/17 07:49:45;;;;;;;4.68;0.70;;;;;;;9.66;100.00;98519.41;5206143;28;20108;-73
2022/11/17 07:52:16;;;;;;;2.30;0.80;;;;;;;9.63;100.00;98519.84;5206185;28;20095;-73
2022/11/17 07:54:46;;;;;;;4.80;0.85;;;;;;;9.64;100.00;98530.34;5205898;28;20030;-73
2022/11/17 07:57:17;;;;;;;4.38;0.77;;;;;;;9.62;100.00;98535.06;5205294;28;20116;-73
2022/11/17 07:59:47;;;;;;;2.58;0.60;;;;;;;9.56;100.00;98539.44;5205927;28;20533;-73
2022/11/17 08:02:18;;;;;;;2.47;1.27;;;;;;;9.54;100.00;98546.06;5206285;28;20060;-73
2022/11/17 08:04:49;;;;;;;2.67;0.75;;;;;;;9.47;100.00;98542.59;5190255;28;20029;-73
2022/11/17 08:07:19;;;;;;;2.13;0.85;;;;;;;9.43;100.00;98544.84;5180224;28;20476;-72
2022/11/17 08:09:50;;;;;;;7.43;0.80;;;;;;;9.43;100.00;98560.91;5199249;28;20075;-73
2022/11/17 08:12:20;;;;;;;5.35;0.63;;;;;;;9.45;100.00;98548.16;5204725;28;20060;-73
2022/11/17 08:14:51;;;;;;;3.03;0.80;;;;;;;9.41;100.00;98565.69;5204121;28;20112;-73
2022/11/17 08:17:22;;;;;;;3.88;0.60;;;;;;;9.39;100.00;98567.75;5202263;28;20112;-73
2022/11/17 08:19:52;;;;;;;7.68;1.00;;;;;;;9.38;100.00;98566.09;5203981;28;20029;-73
2022/11/17 08:22:22;;;;;;;4.88;1.30;;;;;;;9.40;100.00;98564.03;5203799;28;20033;-73
2022/11/17 08:24:53;;;;;;;2.88;0.90;;;;;;;9.48;100.00;98577.16;5199810;28;20128;-73
2022/11/17 08:27:24;;;;;;;8.07;0.90;;;;;;;9.49;100.00;98572.66;5195169;28;20485;-73
2022/11/17 08:29:54;;;;;;;6.28;0.80;;;;;;;9.52;100.00;98582.91;5198729;28;20022;-73
2022/11/17 08:32:25;;;;;;;8.85;1.15;;;;;;;9.54;100.00;98581.66;5203506;28;20521;-73
2022/11/17 08:34:55;;;;;;;2.13;0.65;;;;;;;9.56;100.00;98587.63;5203598;28;20429;-73
2022/11/17 08:37:26;;;;;;;6.03;0.77;;;;;;;9.60;100.00;98588.84;5203146;28;20859;-73
2022/11/17 08:39:56;;;;;;;7.82;0.70;;;;;;;9.65;100.00;98588.19;5186009;28;20053;-73
2022/11/17 08:42:27;;;;;;;6.82;0.70;;;;;;;9.73;100.00;98590.59;5197430;28;20060;-73
2022/11/17 08:44:57;;;;;;;2.75;0.88;;;;;;;9.74;100.00;98602.13;5202825;28;20080;-73
2022/11/17 08:47:28;;;;;;;3.17;1.00;;;;;;;9.70;100.00;98606.28;5203294;28;20083;-73
2022/11/17 08:49:59;;;;;;;4.28;0.70;;;;;;;9.74;100.00;98612.84;5203204;28;20021;-73
2022/11/17 08:52:30;;;;;;;2.75;0.70;;;;;;;9.78;100.00;98611.38;5203599;28;20031;-73
2022/11/17 08:55:01;;;;;;;6.32;1.02;;;;;;;9.82;100.00;98618.75;5203194;28;20025;-73
2022/11/17 08:57:31;;;;;;;3.80;1.15;;;;;;;9.81;100.00;98629.69;5202358;28;20449;-73
2022/11/17 09:00:03;;;;;;;5.85;0.80;;;;;;;9.88;100.00;98635.81;5203282;28;20108;-73
2022/11/17 09:02:34;;;;;;;3.28;0.88;;;;;;;9.96;100.00;98629.41;5203504;28;20037;-73
2022/11/17 09:05:05;;;;;;;5.82;0.90;;;;;;;9.96;100.00;98635.59;5202781;28;20081;-73
2022/11/17 09:07:36;;;;;;;5.57;1.23;;;;;;;10.03;100.00;98630.16;5202476;28;20035;-73
2022/11/17 09:10:09;;;;;;;4.85;0.93;;;;;;;10.12;100.00;98634.22;5202612;28;20017;-73
2022/11/17 09:12:40;;;;;;;4.32;1.00;;;;;;;10.18;100.00;98643.25;5201697;28;20087;-73
2022/11/17 09:15:11;;;;;;;6.68;1.60;;;;;;;10.19;100.00;98643.06;5203307;28;20052;-73
2022/11/17 09:17:46;;;;;;;9.80;0.88;;;;;;;10.27;100.00;98642.81;5201727;28;20032;-72
2022/11/17 09:20:17;;;;;;;;;;;;;;;10.35;100.00;98647.09;5203029;28;20104;-73
2022/11/17 09:22:48;;;;;;;4.18;0.70;;;;;;;10.41;100.00;98658.81;5202892;28;20023;-73
2022/11/17 09:25:18;;;;;;;1.98;0.80;;;;;;;10.48;100.00;98656.88;5198850;28;20037;-73
2022/11/17 09:27:49;;;;;;;3.63;0.82;;;;;;;10.47;100.00;98661.41;5191296;28;20028;-73
2022/11/17 09:30:21;;;;;;;3.00;0.70;;;;;;;10.48;100.00;98662.22;5201140;28;20037;-73
2022/11/17 09:32:51;;;;;;;3.05;0.60;;;;;;;10.47;100.00;98661.41;5199188;28;20402;-73
2022/11/17 09:35:22;;;;;;;4.88;0.80;;;;;;;10.48;100.00;98667.59;5202600;28;20136;-73
2022/11/17 09:37:57;;;;;;;5.95;0.60;;;;;;;10.52;100.00;98680.34;5202436;28;20025;-73
2022/11/17 09:40:28;;;;;;;5.70;1.00;;;;;;;10.55;100.00;98679.91;5202490;28;20037;-73
2022/11/17 09:42:59;;;;;;;1.48;0.60;;;;;;;10.66;100.00;98680.25;5202843;28;20028;-73
2022/11/17 09:45:37;;;;;;;4.43;0.95;;;;;;;10.66;100.00;98689.09;5201706;28;20367;-73
2022/11/17 09:48:20;;;;;;;2.50;0.70;;;;;;;10.72;100.00;98696.28;5200943;28;20025;-73
2022/11/17 09:50:56;;;;;;;4.38;0.77;;;;;;;10.73;100.00;98695.22;5202060;28;20025;-73
2022/11/17 09:53:49;;;;;;;3.65;0.98;;;;;;;10.75;100.00;98711.13;5202812;28;20410;-73
2022/11/17 09:56:20;;;;;;;6.43;1.00;;;;;;;10.79;100.00;98702.41;5202133;28;20027;-73
2022/11/17 09:58:55;;;;;;;5.80;0.77;;;;;;;10.80;100.00;98709.41;5202386;28;20556;-73
2022/11/17 10:01:27;;;;;;;;;;;;;;;10.80;100.00;98704.06;5202827;28;20026;-73
2022/11/17 10:04:00;;;;;;;6.88;0.82;;;;;;;10.83;100.00;98705.47;5203280;28;19909;-73
2022/11/17 10:06:30;;;;;;;5.22;0.90;;;;;;;10.87;100.00;98709.34;5202098;28;20033;-74
2022/11/17 10:09:16;;;;;;;3.78;0.70;;;;;;;10.89;100.00;98726.03;5202351;28;20393;-73
2022/11/17 10:11:47;;;;;;;3.92;0.98;;;;;;;10.98;100.00;98730.09;5202733;28;20029;-74
2022/11/17 10:14:20;;;;;;;4.68;1.00;;;;;;;11.06;100.00;98729.81;5202773;28;20030;-73
2022/11/17 10:16:56;;;;;;;4.72;0.70;;;;;;;11.18;100.00;98724.53;5201042;28;20219;-73
2022/11/17 10:19:29;;;;;;;8.00;0.90;;;;;;;11.28;100.00;98724.84;5202444;28;20029;-74
2022/11/17 10:22:03;;;;;;;5.25;0.90;;;;;;;11.40;100.00;98735.69;5202063;28;20422;-74
2022/11/17 10:24:33;;;;;;;4.40;0.73;;;;;;;11.34;100.00;98742.72;5202327;28;20394;-74
2022/11/17 10:27:16;;;;;;;6.38;0.88;;;;;;;11.37;100.00;98738.81;5195960;28;20025;-74
2022/11/17 10:30:22;;;;;;;3.30;0.85;;;;;;;11.42;100.00;98741.63;5197037;28;20033;-74
2022/11/17 10:32:59;;;;;;;3.63;0.68;;;;;;;11.40;100.00;98749.94;5202596;28;20026;-74
2022/11/17 10:35:32;;;;;;;6.63;0.90;;;;;;;11.34;100.00;98763.41;5205471;28;20056;-73
2022/11/17 10:38:23;;;;;;;3.53;0.70;;;;;;;11.35;100.00;98754.31;5205793;28;20021;-73
2022/11/17 10:40:57;;;;;;;3.95;0.88;;;;;;;11.28;100.00;98753.56;5206131;28;20426;-73
2022/11/17 10:43:35;;;;;;;8.25;0.90;;;;;;;11.14;100.00;98753.69;5206308;28;20025;-73
2022/11/17 10:46:15;;;;;;;3.33;0.77;;;;;;;11.18;100.00;98754.06;5206066;28;20021;-74
2022/11/17 10:49:00;;;;;;;4.18;0.98;;;;;;;11.20;100.00;98756.53;5206363;28;20022;-73
2022/11/17 10:51:33;;;;;;;6.30;0.80;;;;;;;11.06;100.00;98759.34;5206252;28;20034;-73
2022/11/17 10:54:16;;;;;;;4.10;0.77;;;;;;;11.05;100.00;98763.06;5205440;28;20025;-73
2022/11/17 10:56:50;;;;;;;5.30;0.88;;;;;;;10.91;100.00;98764.22;5205273;28;20049;-73
2022/11/17 10:59:30;;;;;;;4.68;1.00;;;;;;;10.92;100.00;98775.75;5205933;28;20383;-73
2022/11/17 11:02:32;;;;;;;1.95;0.85;;;;;;;11.00;100.00;98770.13;5205551;28;20035;-73
2022/11/17 11:05:15;;;;;;;4.55;1.02;;;;;;;10.84;100.00;98766.09;5205301;28;20026;-73
2022/11/17 11:07:45;;;;;;;5.18;1.13;;;;;;;10.87;100.00;98779.09;5204855;28;20025;-73
2022/11/17 11:10:30;;;;;;;5.68;1.23;;;;;;;10.67;100.00;98771.19;5205379;28;20032;-73
2022/11/17 11:13:39;;;;;;;1.00;0.55;;;;;;;10.68;100.00;98780.88;5205054;28;20436;-73
2022/11/17 11:16:10;;;;;;;3.33;0.73;;;;;;;10.51;100.00;98774.41;5203401;28;20076;-73
2022/11/17 11:18:41;;;;;;;5.20;1.10;;;;;;;10.58;100.00;98765.25;5204999;28;20029;-73
2022/11/17 11:21:25;;;;;;;5.32;0.88;;;;;;;10.68;100.00;98769.31;5204712;28;20036;-73
2022/11/17 11:24:27;;;;;;;3.40;1.17;;;;;;;10.87;100.00;98774.53;5203735;28;20406;-73
2022/11/17 11:27:30;;;;;;;6.03;0.98;;;;;;;10.98;100.00;98781.06;5196543;28;20517;-73
2022/11/17 11:30:05;;;;;;;7.05;1.30;;;;;;;10.98;100.00;98780.25;5200807;28;20033;-73
2022/11/17 11:33:03;;;;;;;6.28;1.33;;;;;;;11.04;100.00;98774.81;5202328;28;20371;-73
2022/11/17 11:35:56;;;;;;;2.13;0.90;;;;;;;11.23;100.00;98761.44;5205109;28;20482;-73
2022/11/17 11:38:44;;;;;;;2.47;0.90;;;;;;;11.44;100.00;98782.50;5205438;28;20383;-73
2022/11/17 11:41:34;;;;;;;8.15;1.13;;;;;;;11.52;100.00;98779.53;5204451;28;20044;-73
2022/11/17 11:44:43;;;;;;;4.28;1.02;;;;;;;11.50;100.00;98778.94;5205510;28;20029;-73
2022/11/17 11:47:48;;;;;;;3.50;0.70;;;;;;;11.51;100.00;98769.03;5205208;28;20033;-73
2022/11/17 11:50:25;;;;;;;6.53;1.33;;;;;;;11.67;100.00;98780.00;5205406;28;20104;-74
2022/11/17 11:53:33;;;;;;;10.35;0.98;;;;;;;11.66;100.00;98789.09;5205494;28;20030;-73
2022/11/17 11:56:13;;;;;;;5.22;0.95;;;;;;;11.71;100.00;98785.75;5201836;28;20030;-74
2022/11/17 11:59:06;;;;;;;6.25;0.80;;;;;;;11.88;100.00;98794.03;5205123;28;20075;-73
2022/11/17 12:01:47;;;;;;;6.28;0.70;;;;;;;11.84;100.00;98792.84;5193931;28;20373;-73
2022/11/17 12:04:24;;;;;;;2.08;0.55;;;;;;;11.86;100.00;98798.84;5205401;28;20382;-73
2022/11/17 12:07:22;;;;;;;2.60;0.93;;;;;;;11.78;100.00;98788.34;5204716;28;20044;-74
2022/11/17 12:10:20;;;;;;;6.05;0.77;;;;;;;11.82;100.00;98813.75;5195211;28;20029;-74
2022/11/17 12:12:51;;;;;;;3.17;0.70;;;;;;;11.86;100.00;98806.91;5205561;28;20026;-73
2022/11/17 12:15:21;;;;;;;4.53;0.77;;;;;;;11.91;100.00;98807.88;5204772;28;20383;-74
2022/11/17 12:18:02;;;;;;;3.05;0.95;;;;;;;11.99;100.00;98806.72;5204515;28;20109;-74
2022/11/17 12:20:52;;;;;;;8.23;0.90;;;;;;;12.10;100.00;98806.00;5205116;28;20036;-74
2022/11/17 12:23:41;;;;;;;2.67;0.60;;;;;;;12.14;100.00;98814.41;5204935;28;20386;-74
2022/11/17 12:26:26;;;;;;;5.72;1.20;;;;;;;11.96;100.00;98823.31;5201970;28;20036;-74
2022/11/17 12:29:18;;;;;;;1.73;0.68;;;;;;;11.73;100.00;98826.63;5191796;28;20057;-74
2022/11/17 12:31:59;;;;;;;4.00;0.60;;;;;;;11.71;100.00;98828.72;5204723;28;20049;-73